createdAt,value
2019-06-20T00:00:16.278Z,2.70
2019-06-20T00:02:45.456Z,2.17
2019-06-20T00:05:14.559Z,2.65
2019-06-20T00:07:45.444Z,1.80
2019-06-20T00:10:14.540Z,2.80
2019-06-20T00:12:59.217Z,2.60
2019-06-20T00:15:15.504Z,2.33
2019-06-20T00:17:44.674Z,2.52
2019-06-20T00:20:14.298Z,3.37
2019-06-20T00:22:43.589Z,1.80
2019-06-20T00:25:12.982Z,2.33
2019-06-20T00:27:42.091Z,2.52
2019-06-20T00:30:11.668Z,2.20
2019-06-20T00:32:40.777Z,2.20
2019-06-20T00:35:10.220Z,2.45
2019-06-20T00:37:39.341Z,2.20
2019-06-20T00:40:08.996Z,2.67
2019-06-20T00:42:38.118Z,2.45
2019-06-20T00:45:08.496Z,2.90
2019-06-20T00:47:37.665Z,2.22
2019-06-20T00:50:07.155Z,2.50
2019-06-20T00:52:36.272Z,3.15
2019-06-20T00:55:06.317Z,2.80
2019-06-20T00:57:35.595Z,3.15
2019-06-20T01:00:06.027Z,1.90
2019-06-20T01:02:35.061Z,2.52
2019-06-20T01:05:04.615Z,3.27
2019-06-20T01:07:33.766Z,2.10
2019-06-20T01:10:02.908Z,2.20
2019-06-20T01:12:31.969Z,2.27
2019-06-20T01:15:01.040Z,2.30
2019-06-20T01:17:30.119Z,1.90
2019-06-20T01:19:59.257Z,2.10
2019-06-20T01:22:28.342Z,2.12
2019-06-20T01:24:57.443Z,2.20
2019-06-20T01:27:26.472Z,2.87
2019-06-20T01:29:55.584Z,1.92
2019-06-20T01:32:24.724Z,2.22
2019-06-20T01:34:53.969Z,3.00
2019-06-20T01:37:23.091Z,2.08
2019-06-20T01:39:52.224Z,2.08
2019-06-20T01:42:21.497Z,2.27
2019-06-20T01:44:50.595Z,2.37
2019-06-20T01:47:19.671Z,2.17
2019-06-20T01:49:48.762Z,2.52
2019-06-20T01:52:17.879Z,2.02
2019-06-20T01:54:47.011Z,2.33
2019-06-20T01:57:17.229Z,1.77
2019-06-20T01:59:46.416Z,2.50
2019-06-20T02:02:15.540Z,1.95
2019-06-20T02:04:44.705Z,2.12
2019-06-20T02:07:13.849Z,2.58
2019-06-20T02:09:42.958Z,2.02
2019-06-20T02:12:12.072Z,1.98
2019-06-20T02:14:41.177Z,2.40
2019-06-20T02:17:10.246Z,2.90
2019-06-20T02:19:39.417Z,2.10
2019-06-20T02:22:08.510Z,2.40
2019-06-20T02:24:37.630Z,2.12
2019-06-20T02:27:06.816Z,2.50
2019-06-20T02:29:35.961Z,2.05
2019-06-20T02:32:05.234Z,2.33
2019-06-20T02:34:34.354Z,2.37
2019-06-20T02:37:03.482Z,2.17
2019-06-20T02:39:32.626Z,2.10
2019-06-20T02:42:01.785Z,2.10
2019-06-20T02:44:31.188Z,2.75
2019-06-20T02:47:00.465Z,2.33
2019-06-20T02:49:29.577Z,1.82
2019-06-20T02:51:58.765Z,2.50
2019-06-20T02:54:27.868Z,2.92
2019-06-20T02:56:56.955Z,2.20
2019-06-20T02:59:26.079Z,2.65
2019-06-20T03:01:55.175Z,2.15
2019-06-20T03:04:24.290Z,1.72
2019-06-20T03:06:53.353Z,3.02
2019-06-20T03:09:23.549Z,2.05
2019-06-20T03:11:52.597Z,2.30
2019-06-20T03:14:21.815Z,2.08
2019-06-20T03:16:50.896Z,2.40
2019-06-20T03:19:19.999Z,3.02
2019-06-20T03:21:49.107Z,2.40
2019-06-20T03:24:18.211Z,2.35
2019-06-20T03:26:47.339Z,2.30
2019-06-20T03:29:16.468Z,2.20
2019-06-20T03:31:45.574Z,2.45
2019-06-20T03:34:14.707Z,2.75
2019-06-20T03:36:43.827Z,3.90
2019-06-20T03:39:13.018Z,2.30
2019-06-20T03:41:42.160Z,2.80
2019-06-20T03:44:11.376Z,2.17
2019-06-20T03:46:40.475Z,2.95
2019-06-20T03:49:09.601Z,2.10
2019-06-20T03:51:38.735Z,2.33
2019-06-20T03:54:07.932Z,2.52
2019-06-20T03:56:37.066Z,1.90
2019-06-20T03:59:06.181Z,2.25
2019-06-20T04:01:35.375Z,2.10
2019-06-20T04:04:04.480Z,2.30
2019-06-20T04:06:33.556Z,2.20
2019-06-20T04:09:02.700Z,2.20
2019-06-20T04:11:31.838Z,2.85
2019-06-20T04:14:00.970Z,2.50
2019-06-20T04:16:29.997Z,2.35
2019-06-20T04:18:59.066Z,2.27
2019-06-20T04:21:28.228Z,2.35
2019-06-20T04:23:57.337Z,2.62
2019-06-20T04:26:26.366Z,2.45
2019-06-20T04:28:55.462Z,2.60
2019-06-20T04:31:26.020Z,2.50
2019-06-20T04:33:55.149Z,2.27
2019-06-20T04:36:24.340Z,2.70
2019-06-20T04:38:54.640Z,2.02
2019-06-20T04:41:23.748Z,2.70
2019-06-20T04:43:52.867Z,2.20
2019-06-20T04:46:27.386Z,2.08
2019-06-20T04:48:56.508Z,2.67
2019-06-20T04:51:25.510Z,2.67
2019-06-20T04:53:54.587Z,2.70
2019-06-20T04:56:23.804Z,2.27
2019-06-20T04:58:52.882Z,3.70
2019-06-20T05:01:21.938Z,2.80
2019-06-20T05:03:51.034Z,2.77
2019-06-20T05:06:20.162Z,2.40
2019-06-20T05:08:49.244Z,2.45
2019-06-20T05:11:18.360Z,2.60
2019-06-20T05:13:47.458Z,2.60
2019-06-20T05:16:16.569Z,3.62
2019-06-20T05:18:45.573Z,2.75
2019-06-20T05:21:14.699Z,3.12
2019-06-20T05:23:43.773Z,2.58
2019-06-20T05:26:12.897Z,1.98
2019-06-20T05:28:42.023Z,2.30
2019-06-20T05:31:11.131Z,3.40
2019-06-20T05:33:40.197Z,3.05
2019-06-20T05:36:09.343Z,2.50
2019-06-20T05:38:38.434Z,4.83
2019-06-20T05:41:07.541Z,3.17
2019-06-20T05:43:36.733Z,2.40
2019-06-20T05:46:09.934Z,3.08
2019-06-20T05:48:36.701Z,2.50
2019-06-20T05:51:06.323Z,2.12
2019-06-20T05:53:35.533Z,2.10
2019-06-20T05:56:04.785Z,2.25
2019-06-20T05:58:33.933Z,2.17
2019-06-20T06:01:03.061Z,2.25
2019-06-20T06:03:32.206Z,3.15
2019-06-20T06:06:01.407Z,2.80
2019-06-20T06:08:30.524Z,6.60
2019-06-20T06:10:59.567Z,2.80
2019-06-20T06:13:28.766Z,3.33
2019-06-20T06:15:57.942Z,2.20
2019-06-20T06:18:27.074Z,2.22
2019-06-20T06:20:56.179Z,2.70
2019-06-20T06:23:25.281Z,3.98
2019-06-20T06:25:54.391Z,2.33
2019-06-20T06:28:23.494Z,2.27
2019-06-20T06:30:52.592Z,2.10
2019-06-20T06:33:21.695Z,2.45
2019-06-20T06:35:50.827Z,2.00
2019-06-20T06:38:22.202Z,1.98
2019-06-20T06:40:50.940Z,2.33
2019-06-20T06:43:20.047Z,2.62
2019-06-20T06:45:49.168Z,2.90
2019-06-20T06:48:18.309Z,2.22
2019-06-20T06:50:47.476Z,2.12
2019-06-20T06:53:18.165Z,3.62
2019-06-20T06:55:47.296Z,3.50
2019-06-20T06:58:16.396Z,2.85
2019-06-20T07:00:45.504Z,2.80
2019-06-20T07:03:14.633Z,2.25
2019-06-20T07:05:43.767Z,2.60
2019-06-20T07:08:12.960Z,2.20
2019-06-20T07:10:42.108Z,2.20
2019-06-20T07:13:11.202Z,2.72
2019-06-20T07:15:40.326Z,2.50
2019-06-20T07:18:09.426Z,2.98
2019-06-20T07:20:38.582Z,2.00
2019-06-20T07:23:07.722Z,2.27
2019-06-20T07:25:36.896Z,2.27
2019-06-20T07:28:05.992Z,2.15
2019-06-20T07:30:35.122Z,2.08
2019-06-20T07:33:04.310Z,2.47
2019-06-20T07:35:33.417Z,2.08
2019-06-20T07:38:02.629Z,2.42
2019-06-20T07:40:32.379Z,1.90
2019-06-20T07:43:01.481Z,2.27
2019-06-20T07:45:30.601Z,2.37
2019-06-20T07:47:59.775Z,3.55
2019-06-20T07:50:28.986Z,2.30
2019-06-20T07:53:02.383Z,2.45
2019-06-20T07:55:29.001Z,2.15
2019-06-20T07:57:58.135Z,2.60
2019-06-20T08:00:27.624Z,2.02
2019-06-20T08:02:56.775Z,2.10
2019-06-20T08:05:25.870Z,2.25
2019-06-20T08:07:55.022Z,3.17
2019-06-20T08:10:25.028Z,2.33
2019-06-20T08:12:54.308Z,2.52
2019-06-20T08:15:23.632Z,3.15
2019-06-20T08:17:52.767Z,1.95
2019-06-20T08:20:22.005Z,2.08
2019-06-20T08:22:51.171Z,3.47
2019-06-20T08:25:20.636Z,2.17
2019-06-20T08:27:50.440Z,2.35
2019-06-20T08:30:21.803Z,2.20
2019-06-20T08:32:51.007Z,2.08
2019-06-20T08:35:22.775Z,3.40
2019-06-20T08:37:53.065Z,2.20
2019-06-20T08:40:23.323Z,1.85
2019-06-20T08:42:52.766Z,2.75
2019-06-20T08:45:22.979Z,2.58
2019-06-20T08:47:52.109Z,1.80
2019-06-20T08:50:21.189Z,2.10
2019-06-20T08:52:50.319Z,2.50
2019-06-20T08:55:19.735Z,1.90
2019-06-20T08:57:49.005Z,2.85
2019-06-20T09:00:18.310Z,1.70
2019-06-20T09:02:47.522Z,2.08
2019-06-20T09:05:16.951Z,1.95
2019-06-20T09:07:46.849Z,2.22
2019-06-20T09:10:16.845Z,1.87
2019-06-20T09:12:46.283Z,1.60
2019-06-20T09:15:15.964Z,1.60
2019-06-20T09:17:45.086Z,1.60
2019-06-20T09:20:16.271Z,2.50
2019-06-20T09:22:45.418Z,1.50
2019-06-20T09:25:16.080Z,1.47
2019-06-20T09:27:45.275Z,2.10
2019-06-20T09:30:16.140Z,1.87
2019-06-20T09:32:45.267Z,2.95
2019-06-20T09:35:14.549Z,2.98
2019-06-20T09:37:43.634Z,5.87
2019-06-20T09:40:13.146Z,3.05
2019-06-20T09:42:42.264Z,3.27
2019-06-20T09:45:12.771Z,2.17
2019-06-20T09:47:41.878Z,4.05
2019-06-20T09:50:12.834Z,3.75
2019-06-20T09:52:42.013Z,3.50
2019-06-20T09:55:12.604Z,1.50
2019-06-20T09:57:41.749Z,2.37
2019-06-20T10:00:13.158Z,3.40
2019-06-20T10:02:42.325Z,2.90
2019-06-20T10:05:12.145Z,1.77
2019-06-20T10:07:41.317Z,4.22
2019-06-20T10:10:11.771Z,1.95
2019-06-20T10:12:40.854Z,1.72
2019-06-20T10:15:21.628Z,2.12
2019-06-20T10:17:50.976Z,2.52
2019-06-20T10:20:21.749Z,2.47
2019-06-20T10:22:51.049Z,2.70
2019-06-20T10:25:21.157Z,2.27
2019-06-20T10:27:51.408Z,2.10
2019-06-20T10:30:21.640Z,3.33
2019-06-20T10:32:51.054Z,2.20
2019-06-20T10:35:22.193Z,3.25
2019-06-20T10:37:53.005Z,2.02
2019-06-20T10:40:22.823Z,3.17
2019-06-20T10:42:52.950Z,1.50
2019-06-20T10:45:24.727Z,2.33
2019-06-20T10:47:54.245Z,2.55
2019-06-20T10:50:23.650Z,2.47
2019-06-20T10:52:53.297Z,1.85
2019-06-20T10:55:22.499Z,2.62
2019-06-20T10:57:52.018Z,2.15
2019-06-20T11:00:30.836Z,9.03
2019-06-20T11:02:54.597Z,29.12
2019-06-20T11:05:23.704Z,41.20
2019-06-20T11:07:52.813Z,33.40
2019-06-20T11:10:22.715Z,16.75
2019-06-20T11:12:55.749Z,15.18
2019-06-20T11:15:24.181Z,9.55
2019-06-20T11:17:56.352Z,5.25
2019-06-20T11:20:24.323Z,5.08
2019-06-20T11:22:53.491Z,4.67
2019-06-20T11:25:22.849Z,3.60
2019-06-20T11:27:51.989Z,2.27
2019-06-20T11:30:22.821Z,3.47
2019-06-20T11:32:52.012Z,2.05
2019-06-20T11:35:21.097Z,2.58
2019-06-20T11:37:50.241Z,4.87
2019-06-20T11:40:19.933Z,1.50
2019-06-20T11:42:49.061Z,1.62
2019-06-20T11:45:18.396Z,2.17
2019-06-20T11:47:47.590Z,1.85
2019-06-20T11:50:17.070Z,2.00
2019-06-20T11:52:46.212Z,3.22
2019-06-20T11:55:16.929Z,2.47
2019-06-20T11:57:46.165Z,1.82
2019-06-20T12:00:15.759Z,2.17
2019-06-20T12:02:46.157Z,2.15
2019-06-20T12:05:16.841Z,1.50
2019-06-20T12:07:47.729Z,2.27
2019-06-20T12:10:17.536Z,1.50
2019-06-20T12:12:46.986Z,0.85
2019-06-20T12:15:18.621Z,1.07
2019-06-20T12:17:49.129Z,2.40
2019-06-20T12:20:18.906Z,2.52
2019-06-20T12:22:50.517Z,1.75
2019-06-20T12:25:19.551Z,2.65
2019-06-20T12:27:49.731Z,1.80
2019-06-20T12:30:19.637Z,2.77
2019-06-20T12:32:49.377Z,1.65
2019-06-20T12:35:19.155Z,2.17
2019-06-20T12:37:49.803Z,1.98
2019-06-20T12:40:19.577Z,1.75
2019-06-20T12:42:49.294Z,1.30
2019-06-20T12:45:18.800Z,1.30
2019-06-20T12:47:47.951Z,1.72
2019-06-20T12:50:17.378Z,1.35
2019-06-20T12:52:47.615Z,1.60
2019-06-20T12:55:17.362Z,1.65
2019-06-20T12:57:46.604Z,1.20
2019-06-20T13:00:17.766Z,1.20
2019-06-20T13:02:47.427Z,1.65
2019-06-20T13:05:17.534Z,1.35
2019-06-20T13:07:46.839Z,2.87
2019-06-20T13:10:16.394Z,0.72
2019-06-20T13:12:46.357Z,2.45
2019-06-20T13:15:15.839Z,1.40
2019-06-20T13:17:45.607Z,2.30
2019-06-20T13:20:17.485Z,2.47
2019-06-20T13:22:46.911Z,1.00
2019-06-20T13:25:16.021Z,1.87
2019-06-20T13:27:45.706Z,0.93
2019-06-20T13:30:15.629Z,1.20
2019-06-20T13:32:45.384Z,3.17
2019-06-20T13:35:15.844Z,1.35
2019-06-20T13:37:45.696Z,1.67
2019-06-20T13:40:15.949Z,2.42
2019-06-20T13:42:46.123Z,1.65
2019-06-20T13:45:24.151Z,4.10
2019-06-20T13:47:53.262Z,3.60
2019-06-20T13:50:24.183Z,0.82
2019-06-20T13:52:53.269Z,3.00
2019-06-20T13:55:22.417Z,3.58
2019-06-20T13:57:51.576Z,2.92
2019-06-20T14:00:23.270Z,2.40
2019-06-20T14:02:52.394Z,3.10
2019-06-20T14:05:21.975Z,4.33
2019-06-20T14:07:53.594Z,3.17
2019-06-20T14:10:22.527Z,4.62
2019-06-20T14:12:51.619Z,4.95
2019-06-20T14:15:20.949Z,2.47
2019-06-20T14:17:50.137Z,5.45
2019-06-20T14:20:20.674Z,5.53
2019-06-20T14:22:49.847Z,3.85
2019-06-20T14:25:20.705Z,1.72
2019-06-20T14:27:51.389Z,3.77
2019-06-20T14:30:21.478Z,2.42
2019-06-20T14:32:51.448Z,2.60
2019-06-20T14:35:21.230Z,4.28
2019-06-20T14:37:51.798Z,1.90
2019-06-20T14:40:21.826Z,1.35
2019-06-20T14:42:52.175Z,1.80
2019-06-20T14:45:22.060Z,2.10
2019-06-20T14:47:52.424Z,1.50
2019-06-20T14:50:23.120Z,2.37
2019-06-20T14:52:52.729Z,3.05
2019-06-20T14:55:23.295Z,3.35
2019-06-20T14:57:52.643Z,2.58
2019-06-20T15:00:22.851Z,1.55
2019-06-20T15:02:56.674Z,2.58
2019-06-20T15:05:22.871Z,1.55
2019-06-20T15:07:53.779Z,1.95
2019-06-20T15:10:22.951Z,2.62
2019-06-20T15:12:53.639Z,2.17
2019-06-20T15:15:23.042Z,1.15
2019-06-20T15:17:54.069Z,1.62
2019-06-20T15:20:23.004Z,1.67
2019-06-20T15:22:52.851Z,1.20
2019-06-20T15:25:22.392Z,1.07
2019-06-20T15:27:53.416Z,1.75
2019-06-20T15:30:22.314Z,1.47
2019-06-20T15:33:04.050Z,0.78
2019-06-20T15:35:22.480Z,2.67
2019-06-20T15:37:53.280Z,2.15
2019-06-20T15:40:22.460Z,1.55
2019-06-20T15:42:53.014Z,1.52
2019-06-20T15:45:22.367Z,1.00
2019-06-20T15:47:51.542Z,0.90
2019-06-20T15:50:20.667Z,1.25
2019-06-20T15:52:49.763Z,1.40
2019-06-20T15:55:20.617Z,1.65
2019-06-20T15:57:49.694Z,2.00
2019-06-20T16:00:19.150Z,1.70
2019-06-20T16:02:48.249Z,2.12
2019-06-20T16:05:17.373Z,1.20
2019-06-20T16:07:46.564Z,1.15
2019-06-20T16:10:15.991Z,1.92
2019-06-20T16:12:45.101Z,1.52
2019-06-20T16:15:20.471Z,1.70
2019-06-20T16:17:49.651Z,1.87
2019-06-20T16:20:18.956Z,1.75
2019-06-20T16:22:48.165Z,1.15
2019-06-20T16:25:18.291Z,0.90
2019-06-20T16:27:47.608Z,2.20
2019-06-20T16:30:17.716Z,1.98
2019-06-20T16:32:46.810Z,1.85
2019-06-20T16:35:17.334Z,1.80
2019-06-20T16:37:46.459Z,1.60
2019-06-20T16:40:18.590Z,3.08
2019-06-20T16:42:55.731Z,2.50
2019-06-20T16:45:24.995Z,2.60
2019-06-20T16:47:54.192Z,2.90
2019-06-20T16:50:23.311Z,2.40
2019-06-20T16:52:52.414Z,2.20
2019-06-20T16:55:21.567Z,2.10
2019-06-20T16:57:50.708Z,1.82
2019-06-20T17:00:19.853Z,1.98
2019-06-20T17:02:48.944Z,1.70
2019-06-20T17:05:18.379Z,1.50
2019-06-20T17:07:47.469Z,1.72
2019-06-20T17:10:16.566Z,1.92
2019-06-20T17:12:45.654Z,1.50
2019-06-20T17:15:14.967Z,2.17
2019-06-20T17:17:44.039Z,1.70
2019-06-20T17:20:13.284Z,1.85
2019-06-20T17:22:43.515Z,1.65
2019-06-20T17:25:13.828Z,1.57
2019-06-20T17:27:42.938Z,2.10
2019-06-20T17:30:12.786Z,2.17
2019-06-20T17:32:41.963Z,1.98
2019-06-20T17:35:11.459Z,2.00
2019-06-20T17:37:40.572Z,1.90
2019-06-20T17:40:11.513Z,2.20
2019-06-20T17:42:40.656Z,1.92
2019-06-20T17:45:10.590Z,1.98
2019-06-20T17:47:39.682Z,2.20
2019-06-20T17:50:09.227Z,1.92
2019-06-20T17:52:38.332Z,2.33
2019-06-20T17:55:07.972Z,2.10
2019-06-20T17:57:37.106Z,1.87
2019-06-20T18:00:08.218Z,2.40
2019-06-20T18:02:37.415Z,2.30
2019-06-20T18:05:08.108Z,2.40
2019-06-20T18:07:37.198Z,2.72
2019-06-20T18:10:07.192Z,2.33
2019-06-20T18:12:36.322Z,2.50
2019-06-20T18:15:06.852Z,1.90
2019-06-20T18:17:35.936Z,2.50
2019-06-20T18:20:05.762Z,2.35
2019-06-20T18:22:34.878Z,2.08
2019-06-20T18:25:04.240Z,2.70
2019-06-20T18:27:33.339Z,2.10
2019-06-20T18:30:02.476Z,2.95
2019-06-20T18:32:31.556Z,2.27
2019-06-20T18:35:02.300Z,2.25
2019-06-20T18:37:32.011Z,2.20
2019-06-20T18:40:01.307Z,2.30
2019-06-20T18:42:30.393Z,2.77
2019-06-20T18:44:59.506Z,2.50
2019-06-20T18:47:28.586Z,2.70
2019-06-20T18:49:57.737Z,2.10
2019-06-20T18:52:26.826Z,1.82
2019-06-20T18:54:55.975Z,2.15
2019-06-20T18:57:25.123Z,2.02
2019-06-20T18:59:54.265Z,2.12
2019-06-20T19:02:23.357Z,2.20
2019-06-20T19:04:52.517Z,2.25
2019-06-20T19:07:21.620Z,2.37
2019-06-20T19:09:51.073Z,2.50
2019-06-20T19:12:20.207Z,2.77
2019-06-20T19:14:49.322Z,2.33
2019-06-20T19:17:18.415Z,2.22
2019-06-20T19:19:47.531Z,2.40
2019-06-20T19:22:16.640Z,2.40
2019-06-20T19:24:45.747Z,2.15
2019-06-20T19:27:14.878Z,2.27
2019-06-20T19:29:44.007Z,2.60
2019-06-20T19:32:13.126Z,2.60
2019-06-20T19:34:42.289Z,2.12
2019-06-20T19:37:11.402Z,2.35
2019-06-20T19:39:40.533Z,1.82
2019-06-20T19:42:09.616Z,2.22
2019-06-20T19:44:38.737Z,2.30
2019-06-20T19:47:07.839Z,2.22
2019-06-20T19:49:36.976Z,2.15
2019-06-20T19:52:06.164Z,2.05
2019-06-20T19:54:35.366Z,2.60
2019-06-20T19:57:04.594Z,2.85
2019-06-20T19:59:33.715Z,2.33
2019-06-20T20:02:02.808Z,2.35
2019-06-20T20:04:31.995Z,3.60
2019-06-20T20:07:01.141Z,3.05
2019-06-20T20:09:30.251Z,2.27
2019-06-20T20:11:59.447Z,2.55
2019-06-20T20:14:28.728Z,2.52
2019-06-20T20:16:57.882Z,2.60
2019-06-20T20:19:27.014Z,2.27
2019-06-20T20:21:56.195Z,2.25
2019-06-20T20:24:25.310Z,2.42
2019-06-20T20:26:54.412Z,2.42
2019-06-20T20:29:23.603Z,2.47
2019-06-20T20:31:52.728Z,2.70
2019-06-20T20:34:21.871Z,2.70
2019-06-20T20:36:50.974Z,2.30
2019-06-20T20:39:20.163Z,2.55
2019-06-20T20:41:49.392Z,2.52
2019-06-20T20:44:18.563Z,2.47
2019-06-20T20:46:47.658Z,2.30
2019-06-20T20:49:16.728Z,2.27
2019-06-20T20:51:45.880Z,2.27
2019-06-20T20:54:15.072Z,2.30
2019-06-20T20:56:44.253Z,2.72
2019-06-20T20:59:14.821Z,3.22
2019-06-20T21:01:43.844Z,2.45
2019-06-20T21:04:12.979Z,3.87
2019-06-20T21:06:42.078Z,2.47
2019-06-20T21:09:11.285Z,2.27
2019-06-20T21:11:41.879Z,2.62
2019-06-20T21:14:11.010Z,2.50
2019-06-20T21:16:40.127Z,2.80
2019-06-20T21:19:09.405Z,2.92
2019-06-20T21:21:38.528Z,2.50
2019-06-20T21:24:07.641Z,2.72
2019-06-20T21:26:49.083Z,2.40
2019-06-20T21:29:07.576Z,2.40
2019-06-20T21:31:36.738Z,2.55
2019-06-20T21:34:05.931Z,2.05
2019-06-20T21:36:35.115Z,2.17
2019-06-20T21:39:06.438Z,2.70
2019-06-20T21:41:35.613Z,2.58
2019-06-20T21:44:04.896Z,2.10
2019-06-20T21:46:35.212Z,2.20
2019-06-20T21:49:04.370Z,2.62
2019-06-20T21:51:33.553Z,2.47
2019-06-20T21:54:02.641Z,2.55
2019-06-20T21:56:31.840Z,2.30
2019-06-20T21:59:01.037Z,2.37
2019-06-20T22:01:30.461Z,2.62
2019-06-20T22:03:59.621Z,2.27
2019-06-20T22:06:28.754Z,2.27
2019-06-20T22:08:57.874Z,2.37
2019-06-20T22:11:27.132Z,2.65
2019-06-20T22:13:56.277Z,2.55
2019-06-20T22:16:25.489Z,2.70
2019-06-20T22:18:54.617Z,2.83
2019-06-20T22:21:23.700Z,2.83
2019-06-20T22:23:52.819Z,2.62
2019-06-20T22:26:22.001Z,3.17
2019-06-20T22:28:51.160Z,3.55
2019-06-20T22:31:20.391Z,3.70
2019-06-20T22:33:49.586Z,3.45
2019-06-20T22:36:20.604Z,3.40
2019-06-20T22:38:49.803Z,4.15
2019-06-20T22:41:19.182Z,4.20
2019-06-20T22:43:48.312Z,4.62
2019-06-20T22:46:17.452Z,4.35
2019-06-20T22:48:46.568Z,3.80
2019-06-20T22:51:15.710Z,4.12
2019-06-20T22:53:46.074Z,4.00
2019-06-20T22:56:15.225Z,6.10
2019-06-20T22:58:45.782Z,3.22
2019-06-20T23:01:14.888Z,3.37
2019-06-20T23:03:43.998Z,4.05
2019-06-20T23:06:13.184Z,3.00
2019-06-20T23:08:43.856Z,3.67
2019-06-20T23:11:12.966Z,3.05
2019-06-20T23:13:42.081Z,3.47
2019-06-20T23:16:11.423Z,6.00
2019-06-20T23:18:40.568Z,11.60
2019-06-20T23:21:09.718Z,8.98
2019-06-20T23:23:38.907Z,7.97
2019-06-20T23:26:09.715Z,7.00
2019-06-20T23:28:38.923Z,5.72
2019-06-20T23:31:08.215Z,4.47
2019-06-20T23:33:37.326Z,4.12
2019-06-20T23:36:06.449Z,9.88
2019-06-20T23:38:35.594Z,3.72
2019-06-20T23:41:04.789Z,3.17
2019-06-20T23:43:33.805Z,2.98
2019-06-20T23:46:03.061Z,2.90
2019-06-20T23:48:32.195Z,2.90
2019-06-20T23:51:01.287Z,4.20
2019-06-20T23:53:30.386Z,4.17
2019-06-20T23:55:59.603Z,2.62
2019-06-20T23:58:28.653Z,2.40
